Time;durP1;ratioP1;P1;durP2;ratioP2;P2;SDS_P1;SDS_P2;PMS_P1;PMS_P2;Temp;Humidity;BMP_temperature;BMP_pressure;BME280_temperature;BME280_humidity;BME280_pressure;Samples;Min_cycle;Max_cycle;Signal;HPM_P1;HPM_P2
2022/06/07 00:00:35;;;;;;;2.97;2.78;;;;;;;13.22;100.00;101308.44;10468111;28;20025;-75
2022/06/07 00:05:35;;;;;;;12.27;4.93;;;;;;;13.18;100.00;101307.19;10501108;28;20079;-75
2022/06/07 00:10:36;;;;;;;4.45;4.05;;;;;;;13.24;100.00;101305.50;10502865;28;20548;-75
2022/06/07 00:15:38;;;;;;;10.90;5.50;;;;;;;13.21;100.00;101301.31;10503029;28;20127;-76
2022/06/07 00:20:39;;;;;;;7.32;4.50;;;;;;;13.20;100.00;101299.63;10484037;28;20078;-75
2022/06/07 00:25:40;;;;;;;6.97;5.43;;;;;;;13.21;100.00;101290.44;10501295;28;20172;-75
2022/06/07 00:30:41;;;;;;;4.80;4.38;;;;;;;13.24;100.00;101289.19;10500824;28;20060;-75
2022/06/07 00:35:41;;;;;;;6.20;5.28;;;;;;;13.20;100.00;101288.75;10499801;28;20048;-75
2022/06/07 00:40:42;;;;;;;4.53;4.13;;;;;;;13.23;100.00;101279.34;10483101;28;20029;-75
2022/06/07 00:45:43;;;;;;;5.35;4.40;;;;;;;13.22;100.00;101274.97;10500318;28;20036;-75
2022/06/07 00:50:58;;;;;;;7.78;4.28;;;;;;;13.22;100.00;101270.34;10501004;28;20067;-76
2022/06/07 00:55:59;;;;;;;4.68;4.20;;;;;;;13.23;100.00;101263.03;10482346;28;20028;-75
2022/06/07 01:00:59;;;;;;;5.75;5.22;;;;;;;13.25;100.00;101269.97;10482165;28;20509;-75
2022/06/07 01:10:43;;;;;;;9.55;5.55;;;;;;;13.25;100.00;101258.28;10481807;28;20053;-75
2022/06/07 01:11:20;;;;;;;6.88;6.03;;;;;;;13.24;100.00;101257.44;10500177;28;20107;-76
2022/06/07 01:16:21;;;;;;;6.78;4.68;;;;;;;13.29;100.00;101261.41;10482501;28;20033;-76
2022/06/07 01:21:28;;;;;;;10.55;6.95;;;;;;;13.29;100.00;101242.38;10500770;28;20028;-75
2022/06/07 01:26:29;;;;;;;9.60;7.28;;;;;;;13.34;100.00;101253.47;10498812;28;20052;-76
2022/06/07 01:31:29;;;;;;;6.97;6.25;;;;;;;13.34;100.00;101246.16;10483163;28;20480;-75
2022/06/07 01:36:29;;;;;;;8.05;6.47;;;;;;;13.38;100.00;101252.00;10482012;28;20048;-75
2022/06/07 01:46:49;;;;;;;8.98;6.85;;;;;;;13.41;100.00;101243.44;10498277;28;20494;-77
2022/06/07 01:51:53;;;;;;;7.72;6.88;;;;;;;13.31;100.00;101224.81;10480979;28;20037;-76
2022/06/07 01:56:53;;;;;;;7.30;6.60;;;;;;;13.33;100.00;101232.75;10464422;28;20482;-76
2022/06/07 02:01:54;;;;;;;11.57;7.60;;;;;;;13.33;100.00;101238.19;10480458;28;20044;-76
2022/06/07 02:06:55;;;;;;;8.05;7.18;;;;;;;13.29;100.00;101226.88;10498798;28;20055;-75
2022/06/07 02:11:55;;;;;;;7.30;6.60;;;;;;;13.28;100.00;101232.53;10497360;28;20484;-75
2022/06/07 02:16:56;;;;;;;10.25;7.65;;;;;;;13.28;100.00;101227.94;10497926;28;20044;-75
2022/06/07 02:21:56;;;;;;;9.40;7.15;;;;;;;13.26;100.00;101225.41;10498994;28;20119;-76
2022/06/07 02:27:09;;;;;;;9.63;7.03;;;;;;;13.20;100.00;101218.03;10497702;28;20389;-76
2022/06/07 02:32:30;;;;;;;9.93;6.13;;;;;;;13.21;100.00;101218.91;10497775;28;20025;-76
2022/06/07 02:37:30;;;;;;;5.90;5.40;;;;;;;13.23;100.00;101216.81;10479441;28;20048;-76
2022/06/07 02:42:31;;;;;;;9.90;6.22;;;;;;;13.21;100.00;101221.63;10478981;28;20065;-76
2022/06/07 02:47:31;;;;;;;7.32;5.78;;;;;;;13.19;100.00;101215.56;10499094;28;20048;-76
2022/06/07 02:52:31;;;;;;;11.60;6.07;;;;;;;13.23;100.00;101214.91;10502738;28;20028;-76
2022/06/07 02:57:33;;;;;;;17.55;6.35;;;;;;;13.22;100.00;101212.41;10505909;28;20109;-76
2022/06/07 03:02:33;;;;;;;10.73;5.35;;;;;;;13.24;100.00;101203.03;10505039;28;20047;-76
2022/06/07 03:07:33;;;;;;;6.25;5.68;;;;;;;13.26;100.00;101210.97;10504448;28;20060;-76
2022/06/07 03:12:34;;;;;;;12.50;5.25;;;;;;;13.25;100.00;101210.16;10505151;28;20086;-76
2022/06/07 03:17:35;;;;;;;7.47;6.15;;;;;;;13.22;100.00;101205.09;10504466;28;20047;-76
2022/06/07 03:22:35;;;;;;;5.75;5.22;;;;;;;13.31;100.00;101215.81;10506663;28;20542;-76
2022/06/07 03:27:36;;;;;;;6.28;5.68;;;;;;;13.32;100.00;101209.31;10486982;28;20036;-75
2022/06/07 03:32:38;;;;;;;7.57;6.13;;;;;;;13.36;100.00;101218.72;10503321;28;20087;-76
2022/06/07 03:37:39;;;;;;;12.95;5.63;;;;;;;13.34;100.00;101213.50;10502094;28;20100;-76
2022/06/07 03:42:40;;;;;;;5.97;5.38;;;;;;;13.36;100.00;101225.00;10486294;28;20111;-76
2022/06/07 03:47:40;;;;;;;13.60;6.40;;;;;;;13.37;100.00;101223.97;10485162;28;20044;-76
2022/06/07 03:52:40;;;;;;;6.78;5.47;;;;;;;13.37;100.00;101223.97;10486672;28;20041;-76
2022/06/07 03:57:41;;;;;;;7.53;5.60;;;;;;;13.44;100.00;101222.09;10503750;28;20048;-76
2022/06/07 04:02:41;;;;;;;13.60;6.15;;;;;;;13.53;100.00;101222.72;10484622;28;20039;-76
2022/06/07 04:13:00;;;;;;;8.35;5.57;;;;;;;13.59;100.00;101227.34;10485997;28;20021;-76
2022/06/07 04:18:01;;;;;;;6.25;4.53;;;;;;;13.65;100.00;101237.34;10501410;28;20037;-75
2022/06/07 04:23:01;;;;;;;6.60;4.95;;;;;;;13.72;100.00;101243.66;10501988;28;20378;-75
2022/06/07 04:28:02;;;;;;;14.57;7.38;;;;;;;13.76;100.00;101243.25;10468816;28;20044;-76
2022/06/07 04:33:02;;;;;;;8.63;5.70;;;;;;;13.81;100.00;101238.81;10499738;28;20036;-74
2022/06/07 04:38:03;;;;;;;11.60;5.07;;;;;;;13.97;100.00;101234.81;10483271;28;20127;-78
2022/06/07 04:43:04;;;;;;;12.43;5.90;;;;;;;14.08;100.00;101242.34;10482334;28;20474;-78
2022/06/07 04:48:05;;;;;;;13.90;6.55;;;;;;;14.23;100.00;101250.31;10500385;28;20155;-78
2022/06/07 04:53:06;;;;;;;10.88;5.75;;;;;;;14.27;100.00;101250.72;10500859;28;20037;-77
2022/06/07 04:58:06;;;;;;;11.88;6.22;;;;;;;14.39;100.00;101244.38;10501295;28;20458;-79
2022/06/07 05:03:07;;;;;;;6.18;5.57;;;;;;;14.49;100.00;101243.94;10481924;28;20068;-79
2022/06/07 05:08:07;;;;;;;14.73;5.00;;;;;;;14.56;100.00;101252.13;10499849;28;20405;-79
2022/06/07 05:13:08;;;;;;;13.38;6.10;;;;;;;14.72;100.00;101250.78;10500631;28;20036;-79
2022/06/07 05:18:09;;;;;;;6.53;4.88;;;;;;;14.80;100.00;101255.97;10500516;28;20040;-79
2022/06/07 05:23:09;;;;;;;8.73;6.70;;;;;;;14.95;100.00;101251.09;10491084;28;20044;-79
2022/06/07 05:28:10;;;;;;;8.00;6.25;;;;;;;15.03;100.00;101255.47;10492630;28;20043;-79
2022/06/07 05:33:10;;;;;;;6.80;5.85;;;;;;;15.00;100.00;101253.19;10505820;28;20063;-78
2022/06/07 05:38:11;;;;;;;6.75;5.47;;;;;;;14.94;100.00;101241.25;10507483;28;20408;-79
2022/06/07 05:43:12;;;;;;;6.13;5.60;;;;;;;14.98;100.00;101256.09;10505275;28;20040;-79
2022/06/07 05:48:12;;;;;;;9.10;5.72;;;;;;;15.29;100.00;101259.94;10508518;28;20044;-79
2022/06/07 05:53:13;;;;;;;8.18;5.63;;;;;;;15.72;100.00;101259.19;10490589;28;20032;-79
2022/06/07 05:58:14;;;;;;;9.57;5.63;;;;;;;16.33;100.00;101260.31;10503533;28;20366;-78
2022/06/07 06:03:14;;;;;;;11.27;5.43;;;;;;;16.38;100.00;101261.31;10502189;28;20039;-80
2022/06/07 06:13:35;;;;;;;9.10;6.45;;;;;;;15.97;100.00;101261.94;10501574;28;20024;-79
2022/06/07 06:18:36;;;;;;;11.68;6.63;;;;;;;16.03;100.00;101267.31;10490908;28;20091;-78
2022/06/07 06:23:37;;;;;;;5.75;5.22;;;;;;;16.84;100.00;101262.66;10507662;28;20119;-79
2022/06/07 06:28:38;;;;;;;9.30;5.53;;;;;;;17.44;100.00;101265.38;10517970;28;20047;-79
2022/06/07 06:33:43;;;;;;;8.18;5.18;;;;;;;17.35;100.00;101272.25;10494061;28;20030;-78
2022/06/07 06:38:46;;;;;;;9.30;5.55;;;;;;;17.96;100.00;101277.66;10509271;28;20032;-79
2022/06/07 06:43:47;;;;;;;7.85;5.53;;;;;;;18.25;100.00;101273.13;10509466;28;20047;-79
2022/06/07 06:48:48;;;;;;;7.88;5.07;;;;;;;19.20;100.00;101269.91;10491465;28;20028;-79
2022/06/07 06:53:48;;;;;;;8.02;4.72;;;;;;;18.95;100.00;101277.66;10506843;28;20090;-79
2022/06/07 06:58:49;;;;;;;11.85;4.78;;;;;;;18.56;100.00;101277.38;10490977;28;20488;-78
2022/06/07 07:03:50;;;;;;;4.03;3.72;;;;;;;19.75;100.00;101287.69;10475558;28;20036;-78
2022/06/07 07:08:51;;;;;;;4.43;4.03;;;;;;;19.64;100.00;101280.34;10510505;28;20475;-79
2022/06/07 07:13:53;;;;;;;6.03;4.85;;;;;;;19.22;100.00;101284.25;10489538;28;20033;-79
2022/06/07 07:18:54;;;;;;;4.00;3.65;;;;;;;19.25;100.00;101281.00;10494795;28;20068;-79
2022/06/07 07:23:55;;;;;;;7.70;3.95;;;;;;;19.04;100.00;101284.44;10510147;28;20036;-79
2022/06/07 07:28:56;;;;;;;5.88;4.55;;;;;;;18.90;100.00;101280.31;10495109;28;20436;-79
2022/06/07 07:33:57;;;;;;;6.20;4.07;;;;;;;20.23;100.00;101288.13;10508218;28;20094;-79
2022/06/07 07:38:57;;;;;;;5.53;3.60;;;;;;;21.01;100.00;101298.03;10509812;28;20051;-79
2022/06/07 07:44:00;;;;;;;7.68;5.53;;;;;;;21.04;100.00;101288.41;10508340;28;20036;-79
2022/06/07 07:49:01;;;;;;;3.45;3.15;;;;;;;20.82;100.00;101289.25;10508926;28;20091;-78
2022/06/07 07:54:02;;;;;;;6.53;4.03;;;;;;;20.64;100.00;101286.81;10511043;28;20039;-78
2022/06/07 07:59:02;;;;;;;4.22;3.83;;;;;;;19.96;100.00;101295.16;10487632;28;20032;-78
2022/06/07 08:04:03;;;;;;;9.45;4.18;;;;;;;19.50;100.00;101302.63;10501036;28;20057;-78
2022/06/07 08:09:05;;;;;;;5.47;4.80;;;;;;;20.24;100.00;101290.66;10501833;28;20033;-78
2022/06/07 08:14:07;;;;;;;5.47;4.47;;;;;;;20.47;100.00;101299.78;10484144;28;20028;-79
2022/06/07 08:19:08;;;;;;;5.78;4.90;;;;;;;20.39;100.00;101293.63;10485892;28;20461;-78
2022/06/07 08:24:08;;;;;;;7.10;5.35;;;;;;;20.92;100.00;101293.22;10501958;28;20533;-78
2022/06/07 08:29:09;;;;;;;6.28;4.50;;;;;;;20.42;100.00;101295.00;10511151;28;20064;-79
2022/06/07 08:39:28;;;;;;;6.57;4.78;;;;;;;19.49;100.00;101280.88;10502773;28;20115;-79
2022/06/07 08:44:50;;;;;;;8.27;5.45;;;;;;;19.53;100.00;101290.31;10488199;28;20060;-78
2022/06/07 08:49:55;;;;;;;8.80;6.10;;;;;;;21.05;100.00;101285.41;10493221;28;20069;-79
2022/06/07 08:54:58;;;;;;;7.72;5.07;;;;;;;21.96;100.00;101287.41;10469546;28;20466;-78
2022/06/07 09:00:06;;;;;;;4.93;4.55;;;;;;;22.30;100.00;101289.84;10500966;28;20036;-78
2022/06/07 09:05:11;;;;;;;6.97;4.53;;;;;;;22.85;100.00;101288.50;10483153;28;20051;-79
2022/06/07 09:15:32;;;;;;;5.72;5.10;;;;;;;23.65;100.00;101283.44;10499917;28;20036;-79
2022/06/07 09:20:42;;;;;;;6.18;4.65;;;;;;;23.92;100.00;101282.34;10500374;28;20064;-78
2022/06/07 09:25:48;;;;;;;12.15;4.55;;;;;;;23.84;100.00;101289.28;10498818;28;20032;-79
2022/06/07 09:31:05;;;;;;;5.40;4.95;;;;;;;23.67;100.00;101285.91;10500274;28;20111;-79
2022/06/07 09:36:06;;;;;;;;;;;;;;;24.35;100.00;101280.91;10500131;28;20476;-79
2022/06/07 09:46:34;;;;;;;5.78;5.18;;;;;;;23.38;100.00;101291.97;10497543;28;20036;-79
2022/06/07 09:51:41;;;;;;;9.80;4.88;;;;;;;22.59;100.00;101287.56;10479753;28;20032;-79
2022/06/07 09:56:54;;;;;;;7.82;6.15;;;;;;;21.63;100.00;101294.00;10481907;28;20504;-79
2022/06/07 10:02:07;;;;;;;12.13;6.50;;;;;;;21.34;100.00;101290.66;10501268;28;20136;-79
2022/06/07 10:07:13;;;;;;;9.38;6.88;;;;;;;21.30;100.00;101284.84;10500330;28;20098;-79
2022/06/07 10:12:39;;;;;;;7.72;5.97;;;;;;;21.41;100.00;101285.81;10498347;28;20393;-79
2022/06/07 10:17:52;;;;;;;8.32;6.75;;;;;;;21.40;100.00;101283.31;10482265;28;20029;-79
2022/06/07 10:22:56;;;;;;;10.60;7.15;;;;;;;20.86;100.00;101300.59;10501536;28;20572;-79
2022/06/07 10:28:16;;;;;;;7.35;5.60;;;;;;;20.66;100.00;101293.75;10501600;28;20037;-79
2022/06/07 10:33:46;;;;;;;13.23;7.35;;;;;;;20.84;100.00;101289.84;10500554;28;20024;-79
2022/06/07 10:39:05;;;;;;;16.20;7.55;;;;;;;20.96;100.00;101291.63;10499211;28;20028;-79
2022/06/07 10:44:12;;;;;;;12.30;7.25;;;;;;;21.21;100.00;101283.66;10499858;28;20032;-79
2022/06/07 10:49:19;;;;;;;8.75;6.63;;;;;;;20.92;100.00;101295.97;10500063;28;20039;-79
2022/06/07 10:54:31;;;;;;;12.55;7.72;;;;;;;20.82;100.00;101303.03;10481778;28;20028;-80
2022/06/07 10:59:31;;;;;;;10.20;7.18;;;;;;;20.89;100.00;101305.59;10482717;28;20028;-79
2022/06/07 11:09:59;;;;;;;10.68;7.93;;;;;;;20.77;100.00;101291.09;10491111;28;20044;-79
2022/06/07 11:15:18;;;;;;;9.25;7.05;;;;;;;20.72;100.00;101297.41;10495664;28;20106;-79
2022/06/07 11:20:30;;;;;;;8.30;7.47;;;;;;;20.39;100.00;101306.56;10508174;28;20032;-79
2022/06/07 11:25:41;;;;;;;9.45;7.18;;;;;;;20.18;100.00;101299.91;10491472;28;20547;-78
2022/06/07 11:30:44;;;;;;;10.00;7.32;;;;;;;20.61;100.00;101310.19;10508445;28;20025;-79
2022/06/07 11:35:53;;;;;;;7.85;7.07;;;;;;;21.26;100.00;101307.66;10503355;28;20056;-79
2022/06/07 11:41:36;;;;;;;7.38;6.55;;;;;;;21.62;100.00;101311.63;10486480;28;20047;-79
2022/06/07 11:46:49;;;;;;;7.25;6.63;;;;;;;22.51;100.00;101304.63;10506548;28;20466;-79
2022/06/07 11:52:08;;;;;;;12.18;7.82;;;;;;;22.83;100.00;101293.44;10502804;28;20470;-79
2022/06/07 11:57:28;;;;;;;7.30;6.57;;;;;;;23.44;100.00;101295.56;10508022;28;20084;-79
2022/06/07 12:02:34;;;;;;;7.90;6.72;;;;;;;23.24;100.00;101288.09;10510159;28;20032;-79
2022/06/07 12:07:46;;;;;;;9.13;8.17;;;;;;;24.73;98.50;101286.91;10489620;28;20050;-79
2022/06/07 12:12:49;;;;;;;10.65;7.18;;;;;;;25.65;96.95;101285.53;10506341;28;20285;-79
2022/06/07 12:18:03;;;;;;;10.07;7.43;;;;;;;25.09;94.39;101274.81;10505474;28;20086;-79
2022/06/07 12:23:28;;;;;;;9.07;7.43;;;;;;;24.29;99.67;101292.28;10507043;28;20025;-79
2022/06/07 12:28:30;;;;;;;7.55;6.70;;;;;;;23.35;100.00;101284.22;10493963;28;20102;-79
2022/06/07 12:33:34;;;;;;;8.95;7.93;;;;;;;24.14;100.00;101282.06;10503886;28;20111;-80
2022/06/07 12:38:34;;;;;;;8.63;6.85;;;;;;;25.21;96.53;101273.41;10503705;28;20046;-79
2022/06/07 12:43:43;;;;;;;6.50;6.00;;;;;;;25.37;97.41;101273.31;10505090;28;20037;-79
2022/06/07 12:48:43;;;;;;;8.32;7.53;;;;;;;24.24;98.13;101275.66;10506559;28;20520;-79
2022/06/07 12:53:46;;;;;;;8.02;6.50;;;;;;;24.94;94.54;101276.56;10505337;28;20041;-79
2022/06/07 12:58:51;;;;;;;5.72;5.25;;;;;;;25.33;94.16;101270.25;10504283;28;20051;-79
2022/06/07 13:03:54;;;;;;;15.88;6.43;;;;;;;24.98;91.03;101269.34;10488105;28;20028;-79
2022/06/07 13:09:00;;;;;;;6.85;6.15;;;;;;;24.21;98.96;101270.69;10505373;28;20049;-79
2022/06/07 13:14:00;;;;;;;7.22;6.50;;;;;;;24.03;95.10;101261.06;10486985;28;20124;-79
2022/06/07 13:19:23;;;;;;;9.68;7.15;;;;;;;24.37;94.99;101267.59;10486596;28;20466;-79
2022/06/07 13:24:25;;;;;;;9.10;6.38;;;;;;;25.19;92.92;101252.63;10502248;28;20051;-79
2022/06/07 13:29:34;;;;;;;5.18;4.72;;;;;;;25.62;92.54;101253.69;10505683;28;20055;-79
2022/06/07 13:34:49;;;;;;;13.20;7.05;;;;;;;25.68;93.92;101252.50;10506065;28;20087;-79
2022/06/07 13:40:17;;;;;;;7.93;7.18;;;;;;;26.07;93.60;101250.78;10503686;28;20055;-79
2022/06/07 13:45:23;;;;;;;11.80;5.85;;;;;;;26.07;89.08;101243.31;10502267;28;20029;-79
2022/06/07 13:56:29;;;;;;;12.02;5.72;;;;;;;25.79;87.55;101241.34;10401181;28;20040;-79
2022/06/07 14:01:33;;;;;;;6.70;5.65;;;;;;;24.26;92.06;101237.50;10484845;28;20409;-78
2022/06/07 14:06:38;;;;;;;5.47;4.93;;;;;;;24.23;94.29;101233.34;10499476;28;20117;-78
2022/06/07 14:11:38;;;;;;;6.65;5.28;;;;;;;24.53;96.15;101240.72;10481719;28;20029;-78
2022/06/07 14:16:42;;;;;;;8.00;6.47;;;;;;;24.34;97.27;101234.94;10481378;28;20036;-78
2022/06/07 14:21:42;;;;;;;12.35;5.20;;;;;;;24.22;92.42;101234.44;10480723;28;20090;-78
2022/06/07 14:26:46;;;;;;;6.47;5.88;;;;;;;24.17;92.91;101233.63;10497750;28;20523;-78
2022/06/07 14:31:46;;;;;;;5.32;4.85;;;;;;;24.23;96.24;101226.97;10481352;28;20127;-78
2022/06/07 14:36:46;;;;;;;9.60;5.82;;;;;;;24.33;93.24;101238.84;10480061;28;20033;-78
2022/06/07 14:41:47;;;;;;;9.65;5.35;;;;;;;24.03;88.36;101230.63;10497879;28;20527;-78
2022/06/07 14:46:47;;;;;;;8.43;5.32;;;;;;;23.86;90.97;101228.16;10500858;28;20122;-78
2022/06/07 14:51:49;;;;;;;6.63;5.90;;;;;;;23.78;96.57;101231.50;10504996;28;20028;-78
2022/06/07 14:56:50;;;;;;;7.70;5.75;;;;;;;23.60;97.00;101230.91;10487342;28;20028;-78
2022/06/07 15:01:56;;;;;;;5.55;5.10;;;;;;;23.47;93.60;101241.69;10505071;28;20036;-78
2022/06/07 15:06:56;;;;;;;5.93;5.15;;;;;;;23.14;96.18;101238.34;10453751;28;20049;-78
2022/06/07 15:11:57;;;;;;;8.18;3.88;;;;;;;22.97;95.23;101238.56;10429225;28;20470;-78
2022/06/07 15:16:58;;;;;;;4.97;4.15;;;;;;;22.66;90.02;101238.44;10447105;28;20037;-78
2022/06/07 15:21:59;;;;;;;4.88;4.47;;;;;;;22.70;87.96;101238.72;10428775;28;20033;-78
2022/06/07 15:26:59;;;;;;;4.40;3.83;;;;;;;22.69;92.86;101240.66;10463067;28;20033;-78
2022/06/07 15:32:10;;;;;;;5.50;4.97;;;;;;;22.48;88.75;101230.63;10447087;28;20025;-78
2022/06/07 15:37:11;;;;;;;4.68;4.18;;;;;;;22.39;93.58;101238.59;10464182;28;20033;-77
2022/06/07 15:47:30;;;;;;;8.70;5.28;;;;;;;22.38;93.13;101231.41;10464629;28;20072;-77
2022/06/07 15:52:30;;;;;;;6.07;5.07;;;;;;;22.14;86.57;101227.38;10464550;28;20080;-77
2022/06/07 16:02:50;;;;;;;4.53;4.15;;;;;;;21.55;91.56;101231.13;10463517;28;20475;-77
2022/06/07 16:07:50;;;;;;;4.88;4.47;;;;;;;21.44;91.73;101221.09;10487784;28;20057;-77
2022/06/07 16:12:51;;;;;;;5.97;4.70;;;;;;;21.21;93.64;101220.28;10501817;28;20028;-77
2022/06/07 16:17:51;;;;;;;4.45;4.15;;;;;;;21.04;93.56;101212.16;10485794;28;20408;-77
2022/06/07 16:22:51;;;;;;;7.13;3.85;;;;;;;20.71;95.37;101217.81;10502422;28;20036;-77
2022/06/07 16:33:23;;;;;;;4.10;3.65;;;;;;;19.69;90.73;101215.31;10506186;28;20032;-77
2022/06/07 16:38:26;;;;;;;6.15;4.93;;;;;;;19.66;95.05;101215.00;10485402;28;20421;-77
2022/06/07 16:48:46;;;;;;;5.32;4.38;;;;;;;19.47;92.89;101203.41;10500296;28;20037;-77
2022/06/07 16:53:47;;;;;;;4.88;4.43;;;;;;;19.48;94.87;101200.38;10484946;28;20028;-77
2022/06/07 16:58:47;;;;;;;7.70;4.25;;;;;;;19.31;92.47;101202.31;10500926;28;20037;-77
2022/06/07 17:03:47;;;;;;;5.68;4.05;;;;;;;19.18;93.23;101194.38;10481603;28;20037;-77
2022/06/07 17:08:49;;;;;;;7.80;3.50;;;;;;;19.18;90.62;101208.94;10499372;28;20048;-76
2022/06/07 17:13:50;;;;;;;8.75;5.53;;;;;;;19.21;92.64;101204.88;10481422;28;20120;-77
2022/06/07 17:18:51;;;;;;;8.43;3.95;;;;;;;19.05;93.16;101193.63;10498795;28;20119;-78
2022/06/07 17:23:52;;;;;;;11.80;5.63;;;;;;;18.81;91.68;101195.63;10482175;28;20031;-76
2022/06/07 17:28:52;;;;;;;8.30;4.78;;;;;;;18.71;92.08;101191.84;10500186;28;20028;-76
2022/06/07 17:33:53;;;;;;;9.43;5.03;;;;;;;18.78;93.42;101207.09;10499803;28;20024;-76
2022/06/07 17:38:54;;;;;;;8.23;4.22;;;;;;;18.82;91.02;101204.69;10481672;28;20037;-76
2022/06/07 17:43:56;;;;;;;8.45;3.50;;;;;;;18.79;88.76;101197.81;10497360;28;20091;-77
2022/06/07 17:48:57;;;;;;;10.80;4.63;;;;;;;18.65;89.83;101192.81;10498152;28;20211;-77
2022/06/07 17:53:58;;;;;;;6.85;5.68;;;;;;;18.52;92.24;101189.25;10498987;28;20096;-76
2022/06/07 17:58:58;;;;;;;8.85;4.88;;;;;;;18.34;92.67;101195.75;10497560;28;20158;-76
2022/06/07 18:03:58;;;;;;;7.45;5.00;;;;;;;18.25;91.80;101199.97;10498520;28;20025;-77
2022/06/07 18:08:59;;;;;;;8.30;6.47;;;;;;;18.26;93.91;101192.56;10497131;28;20048;-76
2022/06/07 18:14:00;;;;;;;6.47;4.78;;;;;;;18.30;93.57;101191.81;10499122;28;20036;-76
2022/06/07 18:19:01;;;;;;;7.13;5.50;;;;;;;18.47;94.65;101186.41;10498053;28;20031;-76
2022/06/07 18:24:01;;;;;;;7.82;4.32;;;;;;;18.56;94.92;101187.69;10506196;28;20043;-77
2022/06/07 18:29:03;;;;;;;7.25;6.18;;;;;;;18.65;93.73;101177.19;10506184;28;20037;-76
2022/06/07 18:34:05;;;;;;;7.80;6.60;;;;;;;18.62;94.64;101177.66;10508845;28;20024;-75
2022/06/07 18:39:05;;;;;;;3.63;3.05;;;;;;;18.42;91.78;101180.84;10505651;28;20041;-76
2022/06/07 18:44:06;;;;;;;3.50;2.70;;;;;;;18.19;88.83;101181.72;10506610;28;20493;-75
2022/06/07 18:49:10;;;;;;;8.82;3.83;;;;;;;17.93;89.01;101182.22;10504895;28;20040;-75
2022/06/07 18:54:17;;;;;;;3.58;3.28;;;;;;;17.74;89.91;101187.81;10487201;28;20036;-76
2022/06/07 18:59:20;;;;;;;3.03;2.80;;;;;;;17.60;91.31;101183.63;10486964;28;20107;-76
2022/06/07 19:04:20;;;;;;;4.65;3.92;;;;;;;17.55;92.10;101184.34;10504472;28;20048;-75
2022/06/07 19:09:21;;;;;;;10.45;3.75;;;;;;;17.52;93.67;101187.56;10502743;28;20084;-75
2022/06/07 19:14:22;;;;;;;6.47;4.47;;;;;;;17.54;95.40;101177.19;10504114;28;20036;-75
2022/06/07 19:19:23;;;;;;;4.38;3.88;;;;;;;17.63;96.18;101178.50;10503767;28;20032;-75
2022/06/07 19:24:25;;;;;;;5.25;4.70;;;;;;;17.52;96.45;101175.78;10486083;28;20497;-75
2022/06/07 19:29:26;;;;;;;7.05;5.32;;;;;;;17.49;97.10;101181.72;10503933;28;20389;-76
2022/06/07 19:34:27;;;;;;;7.22;5.13;;;;;;;17.53;97.38;101171.97;10503418;28;20111;-76
2022/06/07 19:39:27;;;;;;;5.78;5.20;;;;;;;17.49;97.89;101176.25;10505312;28;20124;-75
2022/06/07 19:44:28;;;;;;;5.40;4.85;;;;;;;17.43;97.75;101170.66;10485559;28;20036;-75
2022/06/07 19:49:32;;;;;;;10.27;4.40;;;;;;;17.31;97.16;101164.31;10503305;28;20067;-75
2022/06/07 19:54:32;;;;;;;14.30;6.07;;;;;;;17.29;98.59;101171.91;10485906;28;20044;-76
2022/06/07 19:59:34;;;;;;;5.30;4.28;;;;;;;17.33;99.17;101173.13;10503208;28;20400;-76
2022/06/07 20:04:35;;;;;;;6.20;4.82;;;;;;;17.30;99.37;101170.88;10486250;28;20087;-75
2022/06/07 20:09:35;;;;;;;7.70;5.38;;;;;;;17.19;99.30;101171.66;10486255;28;20060;-75
2022/06/07 20:14:36;;;;;;;8.73;4.82;;;;;;;17.15;99.56;101168.56;10484747;28;20546;-75
2022/06/07 20:19:36;;;;;;;9.68;4.93;;;;;;;17.10;99.58;101178.53;10501870;28;20029;-74
2022/06/07 20:24:38;;;;;;;5.43;4.35;;;;;;;17.03;99.81;101180.56;10501839;28;20120;-74
2022/06/07 20:29:39;;;;;;;4.57;4.13;;;;;;;16.93;99.66;101175.66;10502808;28;20036;-75
2022/06/07 20:34:39;;;;;;;5.85;4.53;;;;;;;16.57;99.71;101173.81;10503979;28;20040;-74
2022/06/07 20:39:41;;;;;;;5.35;4.85;;;;;;;16.26;100.00;101170.19;10501198;28;20032;-75
2022/06/07 20:44:42;;;;;;;14.30;6.60;;;;;;;16.14;100.00;101169.28;10484597;28;20067;-75
2022/06/07 20:49:44;;;;;;;9.63;6.43;;;;;;;16.08;100.00;101164.72;10501637;28;20032;-75
2022/06/07 20:54:45;;;;;;;6.68;5.28;;;;;;;16.13;100.00;101163.00;10503096;28;20472;-73
2022/06/07 20:59:45;;;;;;;4.80;4.00;;;;;;;16.19;100.00;101155.78;10465854;28;20044;-75
2022/06/07 21:04:45;;;;;;;7.80;4.82;;;;;;;16.10;100.00;101157.16;10499444;28;20036;-74
2022/06/07 21:09:46;;;;;;;7.45;4.85;;;;;;;15.88;100.00;101146.66;10500428;28;20115;-75
2022/06/07 21:14:47;;;;;;;7.45;4.82;;;;;;;15.77;100.00;101141.97;10483444;28;20029;-75
2022/06/07 21:19:47;;;;;;;5.60;4.97;;;;;;;15.70;100.00;101141.22;10500268;28;20537;-74
2022/06/07 21:24:47;;;;;;;8.57;5.97;;;;;;;15.70;100.00;101149.41;10500636;28;20060;-75
2022/06/07 21:29:48;;;;;;;5.50;4.30;;;;;;;15.83;100.00;101137.50;10499406;28;20079;-74
2022/06/07 21:34:48;;;;;;;8.85;5.10;;;;;;;15.97;100.00;101133.56;10500029;28;20032;-75
2022/06/07 21:39:49;;;;;;;5.25;3.53;;;;;;;16.01;100.00;101135.59;10499353;28;20032;-75
2022/06/07 21:44:49;;;;;;;2.90;2.70;;;;;;;16.01;100.00;101134.75;10499613;28;20547;-75
2022/06/07 21:49:50;;;;;;;3.78;2.05;;;;;;;16.04;100.00;101135.13;10498710;28;20036;-75
2022/06/07 21:54:50;;;;;;;2.47;1.73;;;;;;;16.04;100.00;101126.09;10499214;28;20060;-75
2022/06/07 21:59:50;;;;;;;6.47;2.45;;;;;;;16.03;100.00;101124.44;10498391;28;20036;-75
2022/06/07 22:04:54;;;;;;;3.83;1.63;;;;;;;16.00;100.00;101114.81;10499233;28;20035;-74
2022/06/07 22:09:55;;;;;;;3.60;1.63;;;;;;;16.01;100.00;101111.00;10497591;28;20119;-75
2022/06/07 22:14:55;;;;;;;3.30;1.88;;;;;;;16.01;100.00;101110.19;10497638;28;20029;-75
2022/06/07 22:19:55;;;;;;;1.80;1.40;;;;;;;15.96;100.00;101105.41;10499311;28;20037;-75
2022/06/07 22:24:56;;;;;;;1.75;1.65;;;;;;;15.94;100.00;101093.03;10498064;28;20039;-75
2022/06/07 22:29:56;;;;;;;6.78;2.35;;;;;;;15.91;100.00;101083.41;10479888;28;20021;-75
2022/06/07 22:34:57;;;;;;;3.75;1.58;;;;;;;15.86;100.00;101086.00;10497220;28;20046;-75
2022/06/07 22:39:57;;;;;;;3.00;1.60;;;;;;;15.88;100.00;101078.38;10479707;28;20045;-75
2022/06/07 22:44:59;;;;;;;1.70;1.20;;;;;;;15.90;100.00;101070.81;10498458;28;20033;-75
2022/06/07 22:50:03;;;;;;;2.58;1.55;;;;;;;15.89;100.00;101058.22;10497934;28;20116;-75
2022/06/07 22:55:10;;;;;;;11.60;2.03;;;;;;;15.89;100.00;101055.50;10480005;28;20033;-75
2022/06/07 23:00:14;;;;;;;4.75;2.13;;;;;;;15.92;100.00;101051.47;10479198;28;20047;-74
2022/06/07 23:05:14;;;;;;;7.60;1.45;;;;;;;15.92;100.00;101041.38;10480005;28;20055;-75
2022/06/07 23:10:16;;;;;;;1.65;1.55;;;;;;;15.92;100.00;101038.66;10487312;28;20034;-75
2022/06/07 23:20:35;;;;;;;1.58;1.48;;;;;;;15.96;100.00;101037.13;10505459;28;20111;-75
2022/06/07 23:25:35;;;;;;;9.32;1.65;;;;;;;16.03;100.00;101037.03;10503173;28;20036;-74
2022/06/07 23:30:36;;;;;;;5.70;1.88;;;;;;;16.00;100.00;101030.13;10503476;28;20473;-75
2022/06/07 23:35:37;;;;;;;2.65;2.45;;;;;;;15.93;100.00;101018.47;10504276;28;20389;-75
2022/06/07 23:40:37;;;;;;;3.30;2.45;;;;;;;15.93;100.00;101010.28;10486645;28;20032;-75
2022/06/07 23:45:37;;;;;;;7.00;2.10;;;;;;;15.88;100.00;101012.84;10502566;28;20025;-75
2022/06/07 23:50:39;;;;;;;2.45;1.73;;;;;;;15.90;100.00;101007.19;10485512;28;20032;-75
2022/06/07 23:55:40;;;;;;;4.00;2.60;;;;;;;16.00;100.00;101000.09;10503210;28;20036;-75
